Time;durP1;ratioP1;P1;durP2;ratioP2;P2;SDS_P1;SDS_P2;PMS_P1;PMS_P2;Temp;Humidity;BMP_temperature;BMP_pressure;BME280_temperature;BME280_humidity;BME280_pressure;Samples;Min_cycle;Max_cycle;Signal;HPM_P1;HPM_P2
2023/04/25 00:02:02;;;;;;;11.30;3.80;;;9.30;27.40;;;;;;4961866;28;20176;-90
2023/04/25 00:05:11;;;;;;;12.90;4.57;;;9.40;25.70;;;;;;4919368;29;20188;-91
2023/04/25 00:11:07;;;;;;;18.57;4.90;;;9.30;26.60;;;;;;4917599;29;20234;-92
2023/04/25 00:13:52;;;;;;;;;;;;;;;;;;;;;
2023/04/25 00:16:38;;;;;;;12.13;4.67;;;9.50;27.10;;;;;;4929009;29;20560;-91
2023/04/25 00:19:05;;;;;;;15.10;4.83;;;9.40;27.50;;;;;;4998557;28;20172;-91
2023/04/25 00:25:33;;;;;;;15.57;4.77;;;9.60;26.50;;;;;;4995207;28;20190;-91
2023/04/25 00:28:22;;;;;;;10.37;4.60;;;9.50;25.70;;;;;;5000769;28;20163;-91
2023/04/25 00:31:48;;;;;;;12.67;5.13;;;9.60;24.70;;;;;;5046577;28;20169;-91
2023/04/25 00:35:15;;;;;;;;;;;;;;;;;;;;;
2023/04/25 00:38:02;;;;;;;15.93;4.63;;;9.30;31.40;;;;;;5015643;28;20608;-90
2023/04/25 00:41:08;;;;;;;12.33;4.37;;;9.20;36.80;;;;;;4992504;28;20181;-90
2023/04/25 00:47:03;;;;;;;15.47;4.73;;;9.00;43.70;;;;;;5011999;28;20181;-91
2023/04/25 00:50:01;;;;;;;13.53;4.17;;;9.00;45.70;;;;;;5016789;28;20178;-90
2023/04/25 00:52:27;;;;;;;15.20;4.80;;;9.00;49.00;;;;;;5009566;28;20158;-86
2023/04/25 00:55:38;;;;;;;;;;;;;;;;;;;;;
2023/04/25 00:58:13;;;;;;;18.37;5.30;;;9.00;53.80;;;;;;5014578;28;20592;-90
2023/04/25 01:00:41;;;;;;;15.77;5.27;;;9.00;56.00;;;;;;5004899;28;20201;-91
2023/04/25 01:03:07;;;;;;;13.87;5.57;;;9.00;57.50;;;;;;5018033;28;20170;-92
2023/04/25 01:05:37;;;;;;;17.80;4.57;;;8.90;60.30;;;;;;5008265;28;20273;-91
2023/04/25 01:08:18;;;;;;;;;;;;;;;;;;;;;
2023/04/25 01:10:49;;;;;;;16.63;6.00;;;8.90;60.30;;;;;;5019037;28;20288;-89
2023/04/25 01:13:38;;;;;;;13.87;5.10;;;9.00;66.20;;;;;;5013086;28;20185;-90
2023/04/25 01:16:18;;;;;;;14.43;5.50;;;9.10;65.20;;;;;;5015893;28;20686;-91
2023/04/25 01:20:02;;;;;;;14.27;5.23;;;9.20;62.20;;;;;;4995957;28;20573;-91
2023/04/25 01:22:15;;;;;;;22.30;5.57;;;9.30;59.70;;;;;;5031092;28;20177;-91
2023/04/25 01:25:01;;;;;;;14.53;5.30;;;9.30;59.10;;;;;;5035182;28;20174;-89
2023/04/25 01:27:27;;;;;;;14.67;5.67;;;9.30;59.40;;;;;;5055947;28;20157;-92
2023/04/25 01:30:13;;;;;;;16.33;6.40;;;9.30;57.20;;;;;;5031810;28;20228;-92
2023/04/25 01:33:05;;;;;;;17.50;5.97;;;9.20;58.20;;;;;;5033135;28;20209;-92
2023/04/25 01:35:32;;;;;;;18.60;5.47;;;9.00;60.00;;;;;;5029950;28;20229;-92
2023/04/25 01:37:59;;;;;;;13.07;4.80;;;9.00;64.60;;;;;;5035666;28;20192;-92
2023/04/25 01:40:25;;;;;;;13.67;5.73;;;9.00;64.00;;;;;;5039519;28;20176;-91
2023/04/25 01:42:54;;;;;;;18.47;5.50;;;8.90;66.10;;;;;;5038364;28;20816;-92
2023/04/25 01:45:22;;;;;;;16.90;5.43;;;8.80;66.50;;;;;;5055956;28;20201;-91
2023/04/25 01:48:00;;;;;;;13.87;5.33;;;8.80;68.00;;;;;;5057071;28;20158;-90
2023/04/25 01:50:29;;;;;;;14.50;5.53;;;8.70;71.80;;;;;;5055190;28;20162;-87
2023/04/25 01:53:45;;;;;;;16.47;5.83;;;8.80;75.10;;;;;;5055501;28;20154;-91
2023/04/25 01:56:15;;;;;;;14.43;5.13;;;8.70;75.80;;;;;;5057518;28;20205;-89
2023/04/25 01:59:21;;;;;;;20.53;6.30;;;8.70;74.10;;;;;;5052263;28;20346;-90
2023/04/25 02:02:09;;;;;;;14.30;6.00;;;8.60;79.00;;;;;;5041028;28;20227;-92
2023/04/25 02:04:49;;;;;;;18.63;5.53;;;8.60;82.60;;;;;;5038565;28;20185;-93
2023/04/25 02:07:15;;;;;;;10.37;4.80;;;8.70;85.50;;;;;;5040193;28;20184;-89
2023/04/25 02:10:31;;;;;;;17.93;6.13;;;8.60;84.60;;;;;;5037603;28;20602;-92
2023/04/25 02:16:48;;;;;;;13.70;5.43;;;8.60;89.60;;;;;;5037672;28;20220;-93
2023/04/25 02:19:20;;;;;;;14.63;5.23;;;8.60;89.30;;;;;;5026146;28;20182;-92
2023/04/25 02:21:46;;;;;;;17.90;5.53;;;8.70;88.80;;;;;;5037942;28;20289;-92
2023/04/25 02:24:31;;;;;;;17.37;6.00;;;8.70;87.20;;;;;;5037248;28;20174;-91
2023/04/25 02:27:44;;;;;;;16.40;5.50;;;8.70;87.90;;;;;;5036781;28;20216;-92
2023/04/25 02:30:35;;;;;;;14.07;5.23;;;8.60;87.60;;;;;;5015171;28;20233;-92
2023/04/25 02:34:05;;;;;;;15.57;5.77;;;8.60;90.00;;;;;;5034886;28;20154;-90
2023/04/25 02:40:17;;;;;;;13.23;5.10;;;8.70;90.00;;;;;;5000107;28;20422;-91
2023/04/25 02:43:05;;;;;;;19.03;5.67;;;8.70;86.90;;;;;;4983842;28;20265;-91
2023/04/25 02:46:21;;;;;;;16.60;5.30;;;8.50;88.90;;;;;;4997714;28;20539;-91
2023/04/25 02:48:47;;;;;;;20.00;5.33;;;8.50;91.30;;;;;;4994011;28;20191;-91
2023/04/25 02:51:32;;;;;;;14.00;6.20;;;8.50;91.20;;;;;;4997344;28;20174;-92
2023/04/25 02:53:58;;;;;;;19.47;6.60;;;8.50;91.90;;;;;;5002137;28;20215;-90
2023/04/25 02:56:36;;;;;;;18.23;5.57;;;8.50;93.00;;;;;;5010727;28;20171;-89
2023/04/25 02:59:33;;;;;;;13.57;5.30;;;8.50;92.20;;;;;;5011381;28;20221;-91
2023/04/25 03:02:03;;;;;;;14.60;5.10;;;8.50;91.40;;;;;;4983039;28;20618;-91
2023/04/25 03:04:36;;;;;;;17.10;5.67;;;8.50;90.60;;;;;;4967260;28;20687;-90
2023/04/25 03:07:04;;;;;;;18.97;6.10;;;8.40;90.70;;;;;;4994850;28;20672;-88
2023/04/25 03:09:35;;;;;;;19.80;5.83;;;8.40;91.70;;;;;;4993522;28;20678;-92
2023/04/25 03:12:06;;;;;;;16.30;5.53;;;8.50;92.00;;;;;;5016339;28;20151;-91
2023/04/25 03:14:38;;;;;;;16.33;6.03;;;8.50;89.60;;;;;;4999166;28;20207;-93
2023/04/25 03:17:07;;;;;;;14.37;4.83;;;8.40;91.20;;;;;;4996346;28;20248;-92
2023/04/25 03:19:36;;;;;;;17.60;5.50;;;8.40;89.90;;;;;;4997363;28;20163;-93
2023/04/25 03:22:08;;;;;;;17.27;6.07;;;8.40;90.60;;;;;;4995673;28;20179;-93
2023/04/25 03:24:40;;;;;;;18.20;5.40;;;8.40;90.80;;;;;;4995951;28;20537;-92
2023/04/25 03:27:20;;;;;;;13.73;5.17;;;8.30;90.30;;;;;;4995798;28;20179;-92
2023/04/25 03:29:54;;;;;;;15.03;4.87;;;8.50;90.20;;;;;;4995504;28;20182;-92
2023/04/25 03:32:20;;;;;;;15.97;5.40;;;8.50;89.10;;;;;;4996031;28;20257;-91
2023/04/25 03:35:12;;;;;;;19.60;6.27;;;8.50;88.20;;;;;;4996333;28;20215;-91
2023/04/25 03:37:45;;;;;;;18.90;5.20;;;8.40;88.50;;;;;;5021763;28;20183;-90
2023/04/25 03:40:33;;;;;;;20.23;6.20;;;8.40;88.30;;;;;;5015538;28;20175;-93
2023/04/25 03:43:11;;;;;;;17.77;5.53;;;8.40;88.70;;;;;;5018471;28;20218;-90
2023/04/25 03:45:43;;;;;;;16.43;5.30;;;8.40;90.00;;;;;;5009940;28;20171;-93
2023/04/25 03:48:12;;;;;;;16.47;4.97;;;8.10;85.00;;;;;;5019950;28;20175;-91
2023/04/25 03:50:49;;;;;;;11.67;4.60;;;8.10;83.20;;;;;;5007553;28;20215;-91
2023/04/25 03:53:41;;;;;;;16.00;4.83;;;8.00;80.80;;;;;;4996832;28;20189;-92
2023/04/25 03:56:35;;;;;;;17.00;5.80;;;8.20;83.70;;;;;;4997060;28;20288;-93
2023/04/25 03:59:01;;;;;;;16.40;5.10;;;8.10;83.70;;;;;;4996788;28;20183;-92
2023/04/25 04:01:32;;;;;;;12.90;4.23;;;8.00;84.70;;;;;;4999950;28;20166;-89
2023/04/25 04:03:58;;;;;;;14.77;5.13;;;8.00;81.60;;;;;;4998512;28;20175;-91
2023/04/25 04:06:27;;;;;;;11.73;3.93;;;8.10;82.20;;;;;;4998056;28;20175;-91
2023/04/25 04:08:53;;;;;;;12.90;4.23;;;8.10;77.20;;;;;;5000434;28;20239;-89
2023/04/25 04:11:27;;;;;;;13.37;4.60;;;8.10;77.50;;;;;;5013875;28;20175;-92
2023/04/25 04:13:54;;;;;;;14.70;5.30;;;8.10;71.30;;;;;;5004006;28;20202;-90
2023/04/25 04:16:22;;;;;;;15.43;4.50;;;8.10;69.80;;;;;;5015511;28;20178;-83
2023/04/25 04:18:55;;;;;;;13.23;4.47;;;8.20;68.50;;;;;;5019659;28;20193;-91
2023/04/25 04:21:27;;;;;;;13.17;4.07;;;8.20;63.70;;;;;;5018458;28;20194;-89
2023/04/25 04:23:54;;;;;;;14.73;4.37;;;8.20;63.10;;;;;;5017247;28;20191;-91
2023/04/25 04:26:28;;;;;;;21.90;4.77;;;8.30;60.10;;;;;;5003408;28;20178;-91
2023/04/25 04:33:15;;;;;;;11.60;4.50;;;8.30;53.40;;;;;;4984027;28;20179;-91
2023/04/25 04:35:48;;;;;;;11.00;4.00;;;8.40;55.70;;;;;;4955930;28;20258;-90
2023/04/25 04:38:32;;;;;;;15.03;5.73;;;8.30;52.70;;;;;;4974190;28;20711;-87
2023/04/25 04:43:56;;;;;;;11.00;3.93;;;8.20;57.10;;;;;;4998058;28;20517;-88
2023/04/25 04:46:40;;;;;;;;;;;;;;;;;;;;;
2023/04/25 04:49:36;;;;;;;17.97;5.20;;;8.40;61.50;;;;;;4994704;28;20171;-91
2023/04/25 04:55:32;;;;;;;16.63;5.87;;;8.10;69.20;;;;;;5006271;28;20218;-86
2023/04/25 05:03:05;;;;;;;;;;;;;;;;;;;;;
2023/04/25 05:09:30;;;;;;;;;;;;;;;;;;;;;
2023/04/25 05:11:56;;;;;;;17.70;5.20;;;7.80;76.50;;;;;;4920795;29;20261;-92
2023/04/25 05:14:23;;;;;;;13.73;4.27;;;7.80;73.20;;;;;;4917677;29;20311;-92
2023/04/25 05:17:45;;;;;;;13.17;4.30;;;7.90;64.90;;;;;;4978515;28;20253;-87
2023/04/25 05:20:11;;;;;;;12.87;4.23;;;7.90;62.00;;;;;;4985564;28;20198;-89
2023/04/25 05:23:08;;;;;;;8.40;4.33;;;7.80;58.40;;;;;;5015238;28;20190;-92
2023/04/25 05:28:52;;;;;;;14.07;5.37;;;7.70;61.10;;;;;;4997245;28;20173;-90
2023/04/25 05:31:48;;;;;;;10.23;4.43;;;7.80;63.40;;;;;;4999075;28;20174;-91
2023/04/25 05:38:16;;;;;;;14.80;5.10;;;7.80;69.10;;;;;;4999429;28;20265;-87
2023/04/25 05:42:04;;;;;;;;;;;;;;;;;;;;;
2023/04/25 05:44:31;;;;;;;17.87;5.23;;;7.90;64.30;;;;;;5018745;28;20244;-87
2023/04/25 05:47:00;;;;;;;14.70;6.07;;;7.80;68.80;;;;;;5016930;28;20222;-89
2023/04/25 05:49:32;;;;;;;14.07;5.13;;;7.90;67.60;;;;;;5012056;28;20170;-91
2023/04/25 05:52:10;;;;;;;16.47;5.40;;;7.90;66.10;;;;;;5034839;28;20158;-86
2023/04/25 05:54:57;;;;;;;15.63;5.03;;;7.90;65.80;;;;;;5028835;28;20197;-93
2023/04/25 05:57:32;;;;;;;13.23;5.10;;;7.90;68.30;;;;;;5021041;28;20273;-93
2023/04/25 06:02:59;;;;;;;13.57;5.33;;;8.00;65.70;;;;;;5020362;28;20211;-90
2023/04/25 06:05:25;;;;;;;12.00;5.53;;;8.10;64.00;;;;;;5019458;28;20235;-90
2023/04/25 06:08:44;;;;;;;15.87;5.50;;;8.10;64.00;;;;;;5001432;28;20174;-89
2023/04/25 06:11:15;;;;;;;12.33;5.70;;;8.10;61.30;;;;;;4997039;28;20191;-89
2023/04/25 06:13:42;;;;;;;16.03;5.13;;;8.00;62.60;;;;;;4998207;28;20171;-90
2023/04/25 06:16:08;;;;;;;15.90;6.10;;;8.00;65.50;;;;;;4999038;28;20206;-93
2023/04/25 06:19:52;;;;;;;14.37;5.30;;;8.10;63.70;;;;;;5001200;28;20177;-93
2023/04/25 06:22:07;;;;;;;13.80;5.47;;;8.20;58.90;;;;;;5003914;28;20194;-93
2023/04/25 06:24:38;;;;;;;10.07;4.73;;;8.30;53.60;;;;;;5006196;28;20183;-95
2023/04/25 06:27:14;;;;;;;12.87;5.00;;;8.30;44.90;;;;;;5020674;28;20185;-93
2023/04/25 06:33:10;;;;;;;9.13;4.30;;;8.30;38.20;;;;;;5019983;28;20222;-92
2023/04/25 06:35:45;;;;;;;8.30;3.50;;;8.30;36.60;;;;;;5019369;28;20221;-93
2023/04/25 06:38:15;;;;;;;11.40;3.90;;;8.30;39.90;;;;;;5018286;28;20188;-92
2023/04/25 06:41:25;;;;;;;17.00;4.83;;;8.20;40.80;;;;;;5020019;28;20615;-94
2023/04/25 06:44:03;;;;;;;14.90;4.70;;;8.20;43.10;;;;;;5005110;28;20192;-94
2023/04/25 06:46:44;;;;;;;7.97;3.80;;;8.30;43.70;;;;;;5018521;28;20273;-92
2023/04/25 06:49:10;;;;;;;13.50;3.87;;;8.30;44.00;;;;;;5020441;28;20170;-92
2023/04/25 06:51:36;;;;;;;12.53;4.30;;;8.30;43.80;;;;;;5027466;28;20198;-93
2023/04/25 06:54:04;;;;;;;11.97;3.83;;;8.40;43.50;;;;;;5015458;28;20202;-92
2023/04/25 06:56:35;;;;;;;14.83;4.23;;;8.20;43.40;;;;;;5037921;28;20170;-93
2023/04/25 06:59:08;;;;;;;15.37;3.90;;;8.20;43.00;;;;;;5035267;28;20178;-92
2023/04/25 07:01:43;;;;;;;10.03;3.70;;;8.30;42.50;;;;;;5027300;28;20269;-94
2023/04/25 07:04:09;;;;;;;19.97;4.23;;;8.30;41.50;;;;;;5024390;28;20170;-93
2023/04/25 07:06:51;;;;;;;15.03;4.20;;;8.40;39.40;;;;;;5020601;28;20166;-92
2023/04/25 07:09:45;;;;;;;16.17;4.30;;;8.40;37.40;;;;;;5032836;28;20159;-87
2023/04/25 07:12:20;;;;;;;12.33;4.07;;;8.50;36.10;;;;;;5041059;28;20166;-89
2023/04/25 07:15:09;;;;;;;15.20;3.60;;;8.60;26.80;;;;;;5028854;28;20213;-90
2023/04/25 07:17:43;;;;;;;9.93;3.60;;;8.60;23.70;;;;;;5019304;28;20193;-92
2023/04/25 07:20:21;;;;;;;13.83;3.60;;;8.60;21.90;;;;;;5023146;28;20158;-94
2023/04/25 07:22:53;;;;;;;11.97;3.93;;;8.60;24.30;;;;;;5034096;28;20170;-89
2023/04/25 07:25:19;;;;;;;11.90;3.57;;;8.60;19.90;;;;;;5026258;28;20194;-88
2023/04/25 07:27:52;;;;;;;9.17;3.77;;;8.70;17.20;;;;;;5034236;28;20368;-91
2023/04/25 07:30:39;;;;;;;7.97;3.20;;;8.70;15.30;;;;;;5038967;28;20197;-90
2023/04/25 07:33:54;;;;;;;10.60;3.17;;;8.70;15.00;;;;;;5035005;28;20174;-92
2023/04/25 07:36:27;;;;;;;11.67;3.33;;;8.80;4.90;;;;;;5025500;28;20270;-93
2023/04/25 07:38:58;;;;;;;11.27;3.33;;;8.70;6.00;;;;;;5017386;28;20178;-93
2023/04/25 07:41:27;;;;;;;9.23;3.27;;;8.70;6.40;;;;;;5022237;28;20201;-92
2023/04/25 07:44:12;;;;;;;;;;;;;;;;;;;;;
2023/04/25 07:46:46;;;;;;;11.23;2.90;;;8.80;2.20;;;;;;5019915;28;20741;-92
2023/04/25 07:49:15;;;;;;;9.10;3.40;;;8.80;1.10;;;;;;5019102;28;20177;-88
2023/04/25 07:51:43;;;;;;;6.87;2.97;;;8.80;1.00;;;;;;5016853;28;20560;-93
2023/04/25 07:54:09;;;;;;;8.77;2.80;;;8.70;1.00;;;;;;5017618;28;20229;-90
2023/04/25 07:56:43;;;;;;;7.73;2.90;;;8.70;1.00;;;;;;5017170;28;20185;-91
2023/04/25 07:59:18;;;;;;;10.63;3.40;;;8.80;5.40;;;;;;5017459;28;20268;-93
2023/04/25 08:01:44;;;;;;;11.47;2.70;;;8.80;2.90;;;;;;5020349;28;20170;-92
2023/04/25 08:04:10;;;;;;;8.20;3.30;;;8.70;1.00;;;;;;5029775;28;20194;-91
2023/04/25 08:06:37;;;;;;;14.00;3.37;;;8.90;1.80;;;;;;5038075;28;20179;-90
2023/04/25 08:09:21;;;;;;;;;;;;;;;;;;;;;
2023/04/25 08:12:05;;;;;;;6.93;3.00;;;9.30;1.00;;;;;;5029372;28;20245;-92
2023/04/25 08:14:42;;;;;;;10.47;3.10;;;9.30;1.00;;;;;;5033257;28;20194;-90
2023/04/25 08:17:52;;;;;;;10.17;3.23;;;9.30;1.00;;;;;;5021433;28;20194;-92
2023/04/25 08:20:19;;;;;;;11.00;3.03;;;9.30;1.00;;;;;;5023299;28;20178;-90
2023/04/25 08:22:45;;;;;;;13.80;4.27;;;9.40;1.00;;;;;;5026545;28;20166;-88
2023/04/25 08:25:12;;;;;;;11.23;3.17;;;9.40;1.00;;;;;;5025846;28;20167;-92
2023/04/25 08:27:38;;;;;;;9.73;3.00;;;9.40;1.00;;;;;;5027541;28;20635;-91
2023/04/25 08:30:08;;;;;;;9.07;2.90;;;9.50;1.00;;;;;;5021061;28;20244;-91
2023/04/25 08:32:34;;;;;;;8.10;2.83;;;9.50;1.00;;;;;;5035001;28;20216;-90
2023/04/25 08:35:00;;;;;;;11.37;3.10;;;9.50;1.00;;;;;;5035640;28;20205;-91
2023/04/25 08:37:26;;;;;;;10.63;3.50;;;9.50;1.00;;;;;;5038116;28;20197;-91
2023/04/25 08:39:53;;;;;;;7.83;2.70;;;9.50;1.00;;;;;;5029217;28;20178;-86
2023/04/25 08:42:22;;;;;;;8.40;3.27;;;9.50;1.00;;;;;;5022728;28;20202;-88
2023/04/25 08:44:49;;;;;;;7.70;2.60;;;9.60;1.00;;;;;;5022913;28;20174;-87
2023/04/25 08:47:21;;;;;;;10.13;2.93;;;9.80;1.00;;;;;;5029969;28;20174;-88
2023/04/25 08:49:53;;;;;;;5.80;2.50;;;9.80;1.00;;;;;;5030512;28;20236;-87
2023/04/25 08:52:30;;;;;;;9.17;3.37;;;9.90;1.00;;;;;;5028982;28;20166;-87
2023/04/25 08:54:57;;;;;;;10.27;3.23;;;10.20;1.00;;;;;;5033438;28;20206;-83
2023/04/25 08:57:33;;;;;;;6.20;2.80;;;10.40;1.00;;;;;;5032587;28;20174;-87
2023/04/25 09:00:24;;;;;;;7.97;2.57;;;10.20;1.00;;;;;;5022643;28;20574;-91
2023/04/25 09:02:51;;;;;;;7.43;2.30;;;10.10;1.00;;;;;;5023317;28;20175;-84
2023/04/25 09:05:18;;;;;;;9.17;2.83;;;9.80;1.00;;;;;;5011496;28;20194;-86
2023/04/25 09:07:44;;;;;;;7.33;2.60;;;9.60;1.00;;;;;;5028325;28;20181;-88
2023/04/25 09:10:11;;;;;;;8.03;2.53;;;9.80;1.00;;;;;;5021052;28;20166;-89
2023/04/25 09:12:37;;;;;;;8.50;2.57;;;9.90;1.00;;;;;;5017071;28;20201;-91
2023/04/25 09:15:07;;;;;;;9.20;2.77;;;10.10;1.00;;;;;;5016671;28;20483;-87
2023/04/25 09:17:34;;;;;;;9.03;2.23;;;10.10;1.00;;;;;;5029495;28;20250;-87
2023/04/25 09:20:11;;;;;;;7.60;2.20;;;9.90;1.00;;;;;;5027601;28;20170;-89
2023/04/25 09:22:38;;;;;;;7.97;2.40;;;9.70;1.00;;;;;;5019855;28;20184;-88
2023/04/25 09:25:12;;;;;;;7.40;2.30;;;9.50;1.00;;;;;;4998979;28;20666;-91
2023/04/25 09:27:50;;;;;;;6.80;2.30;;;9.50;1.00;;;;;;5015793;28;20177;-90
2023/04/25 09:30:16;;;;;;;7.97;2.17;;;9.50;1.00;;;;;;5036485;28;20158;-88
2023/04/25 09:32:45;;;;;;;9.20;2.23;;;9.50;1.00;;;;;;5037765;28;20181;-85
2023/04/25 09:35:23;;;;;;;5.33;2.17;;;9.50;1.00;;;;;;5035595;28;20313;-85
2023/04/25 09:37:50;;;;;;;8.33;2.53;;;9.40;1.00;;;;;;5029829;28;20623;-90
2023/04/25 09:40:19;;;;;;;5.17;2.10;;;9.40;1.00;;;;;;5028297;28;20178;-89
2023/04/25 09:42:59;;;;;;;6.73;2.40;;;9.40;1.00;;;;;;5019181;28;20178;-90
2023/04/25 09:45:24;;;;;;;8.67;2.67;;;9.50;1.00;;;;;;5021603;28;20174;-87
2023/04/25 09:47:55;;;;;;;10.87;2.80;;;9.70;1.00;;;;;;5022989;28;20236;-92
2023/04/25 09:50:24;;;;;;;8.13;2.43;;;9.60;1.00;;;;;;5016582;28;20183;-88
2023/04/25 09:53:08;;;;;;;10.83;3.10;;;10.00;1.00;;;;;;5001096;28;20175;-91
2023/04/25 09:55:35;;;;;;;8.37;2.53;;;10.40;1.00;;;;;;5001870;28;20210;-89
2023/04/25 09:58:07;;;;;;;7.30;2.40;;;10.60;1.00;;;;;;5002826;28;20636;-89
2023/04/25 10:00:35;;;;;;;6.10;2.20;;;10.70;1.00;;;;;;4990180;28;20205;-90
2023/04/25 10:03:05;;;;;;;7.67;2.43;;;10.70;1.00;;;;;;5006599;28;20697;-87
2023/04/25 10:05:36;;;;;;;7.17;1.57;;;10.70;1.00;;;;;;5007849;28;20175;-88
2023/04/25 10:08:06;;;;;;;6.83;2.00;;;10.70;1.00;;;;;;5014581;28;20230;-85
2023/04/25 10:10:36;;;;;;;5.50;1.60;;;10.70;1.00;;;;;;5011668;28;20175;-88
2023/04/25 10:13:05;;;;;;;5.23;1.50;;;10.30;1.00;;;;;;5006331;28;20229;-90
2023/04/25 10:15:35;;;;;;;8.53;2.67;;;10.10;1.00;;;;;;5005458;28;20210;-84
2023/04/25 10:18:02;;;;;;;7.47;1.90;;;10.10;1.00;;;;;;5013721;28;20199;-88
2023/04/25 10:20:31;;;;;;;4.10;1.40;;;10.30;1.00;;;;;;4992282;28;20179;-90
2023/04/25 10:23:08;;;;;;;7.63;2.03;;;10.30;1.00;;;;;;4988154;28;20623;-90
2023/04/25 10:25:35;;;;;;;7.50;1.67;;;10.50;1.00;;;;;;5003904;28;20170;-90
2023/04/25 10:28:03;;;;;;;6.73;1.20;;;10.70;1.00;;;;;;4999935;28;20593;-84
2023/04/25 10:30:29;;;;;;;4.67;1.40;;;10.80;1.00;;;;;;5009647;28;20254;-88
2023/04/25 10:32:56;;;;;;;5.13;1.50;;;10.90;1.00;;;;;;5018408;28;20266;-86
2023/04/25 10:35:30;;;;;;;4.70;1.30;;;11.20;1.00;;;;;;5018054;28;20281;-86
2023/04/25 10:38:03;;;;;;;4.90;1.20;;;11.20;1.00;;;;;;5035195;28;20261;-88
2023/04/25 10:40:29;;;;;;;4.37;1.30;;;11.30;1.00;;;;;;5036328;28;20167;-86
2023/04/25 10:43:29;;;;;;;5.27;1.53;;;11.20;99.90;;;;;;5028728;28;20167;-85
2023/04/25 10:45:55;;;;;;;5.30;1.67;;;11.10;99.90;;;;;;5039942;28;20202;-86
2023/04/25 10:48:53;;;;;;;6.87;1.53;;;11.20;99.90;;;;;;5034095;28;20170;-87
2023/04/25 10:51:22;;;;;;;3.43;1.30;;;11.30;99.90;;;;;;5020596;28;20633;-93
2023/04/25 10:54:02;;;;;;;5.67;2.13;;;11.20;1.00;;;;;;5019968;28;20173;-91
2023/04/25 10:56:39;;;;;;;6.73;1.83;;;10.70;1.00;;;;;;5025280;28;20178;-90
2023/04/25 10:59:12;;;;;;;5.53;1.27;;;10.40;1.00;;;;;;5019948;28;20201;-91
2023/04/25 11:01:43;;;;;;;7.37;1.83;;;10.20;1.00;;;;;;5028450;28;20261;-88
2023/04/25 11:04:29;;;;;;;6.03;1.87;;;10.20;1.00;;;;;;5027454;28;20186;-92
2023/04/25 11:07:02;;;;;;;4.53;1.83;;;10.00;1.00;;;;;;5023842;28;20174;-90
2023/04/25 11:09:28;;;;;;;9.73;2.07;;;10.00;1.00;;;;;;5034742;28;20242;-88
2023/04/25 11:11:55;;;;;;;5.30;1.60;;;9.70;1.00;;;;;;5020477;28;20650;-91
2023/04/25 11:14:21;;;;;;;9.63;2.20;;;9.70;1.00;;;;;;5018171;28;20198;-91
2023/04/25 11:16:47;;;;;;;10.37;1.83;;;9.90;1.00;;;;;;5017350;28;20201;-93
2023/04/25 11:19:13;;;;;;;10.33;2.53;;;9.90;1.00;;;;;;5016709;28;20171;-92
2023/04/25 11:21:39;;;;;;;8.77;1.87;;;10.10;1.00;;;;;;5017812;28;20734;-91
2023/04/25 11:24:05;;;;;;;4.37;1.70;;;10.30;1.00;;;;;;5026315;28;20721;-91
2023/04/25 11:26:31;;;;;;;7.13;2.17;;;10.40;1.00;;;;;;5017169;28;20178;-92
2023/04/25 11:29:01;;;;;;;3.27;1.20;;;10.50;1.00;;;;;;5017616;28;20178;-91
2023/04/25 11:31:27;;;;;;;5.93;1.93;;;10.60;1.00;;;;;;5001234;28;20185;-86
2023/04/25 11:33:54;;;;;;;6.50;1.57;;;10.50;1.00;;;;;;5003003;28;20182;-91
2023/04/25 11:36:22;;;;;;;5.23;1.73;;;10.50;1.00;;;;;;5019025;28;20213;-92
2023/04/25 11:38:48;;;;;;;5.93;1.70;;;10.60;1.00;;;;;;5017664;28;20185;-88
2023/04/25 11:41:13;;;;;;;5.70;1.57;;;10.60;1.00;;;;;;5020740;28;20170;-91
2023/04/25 11:43:39;;;;;;;6.00;1.60;;;10.60;1.00;;;;;;5026740;28;20181;-86
2023/04/25 11:46:11;;;;;;;8.10;1.97;;;10.60;1.00;;;;;;5035332;28;20185;-92
2023/04/25 11:48:42;;;;;;;6.60;2.00;;;10.50;1.00;;;;;;5021400;28;20205;-90
2023/04/25 11:51:09;;;;;;;5.37;1.60;;;10.60;1.00;;;;;;5020770;28;20178;-90
2023/04/25 11:53:36;;;;;;;3.10;1.20;;;10.90;1.00;;;;;;5020446;28;20228;-90
2023/04/25 11:56:08;;;;;;;4.27;1.60;;;10.90;1.00;;;;;;5025140;28;20268;-90
2023/04/25 11:58:56;;;;;;;5.50;1.40;;;10.80;1.00;;;;;;5031639;28;20662;-87
2023/04/25 12:01:30;;;;;;;3.70;1.63;;;10.80;1.00;;;;;;5034690;28;20198;-88
2023/04/25 12:04:10;;;;;;;4.50;1.70;;;11.00;1.00;;;;;;5027210;28;20232;-90
2023/04/25 12:06:40;;;;;;;6.00;1.90;;;11.30;1.00;;;;;;5023088;28;20242;-87
2023/04/25 12:09:09;;;;;;;4.83;1.63;;;11.40;1.00;;;;;;5025515;28;20174;-90
2023/04/25 12:12:09;;;;;;;4.17;1.50;;;11.40;1.00;;;;;;5020556;28;20170;-91
2023/04/25 12:14:36;;;;;;;3.33;1.77;;;11.30;1.00;;;;;;4999144;28;20328;-91
2023/04/25 12:17:03;;;;;;;4.13;1.70;;;11.30;1.00;;;;;;5025296;28;20745;-90
2023/04/25 12:19:36;;;;;;;7.70;1.90;;;11.30;1.00;;;;;;5037595;28;20178;-89
2023/04/25 12:22:03;;;;;;;4.47;1.77;;;10.90;1.00;;;;;;5036368;28;20167;-90
2023/04/25 12:24:33;;;;;;;5.10;1.73;;;11.10;1.00;;;;;;5037066;28;20162;-89
2023/04/25 12:27:04;;;;;;;4.80;1.40;;;11.00;1.00;;;;;;5033359;28;20214;-86
2023/04/25 12:29:37;;;;;;;3.37;0.90;;;10.90;1.00;;;;;;5003438;28;20561;-89
2023/04/25 12:32:08;;;;;;;5.47;1.40;;;10.80;1.00;;;;;;5019751;28;20174;-87
2023/04/25 12:34:37;;;;;;;4.77;1.20;;;11.10;1.00;;;;;;5018852;28;20220;-88
2023/04/25 12:37:03;;;;;;;2.30;0.93;;;11.20;99.90;;;;;;5021346;28;20509;-87
2023/04/25 12:39:28;;;;;;;3.17;1.20;;;11.20;99.90;;;;;;5019857;28;20528;-90
2023/04/25 12:41:54;;;;;;;3.83;1.20;;;11.20;99.90;;;;;;5016905;28;20175;-90
2023/04/25 12:44:21;;;;;;;5.03;1.57;;;11.40;99.90;;;;;;5033277;28;20168;-86
2023/04/25 12:46:48;;;;;;;3.07;1.10;;;11.50;99.90;;;;;;5033518;28;20282;-88
2023/04/25 12:49:14;;;;;;;4.90;1.40;;;11.60;99.90;;;;;;5036891;28;20163;-90
2023/04/25 12:51:41;;;;;;;6.57;1.97;;;11.60;1.00;;;;;;5037481;28;20176;-86
2023/04/25 12:54:08;;;;;;;4.93;1.73;;;11.60;1.00;;;;;;5036825;28;20186;-89
2023/04/25 12:56:38;;;;;;;3.37;1.20;;;11.70;1.00;;;;;;5033623;28;20186;-88
2023/04/25 12:59:03;;;;;;;4.03;1.20;;;11.50;99.90;;;;;;5032000;28;20177;-87
2023/04/25 13:01:30;;;;;;;5.43;1.50;;;11.30;99.90;;;;;;5031752;28;20198;-88
2023/04/25 13:04:13;;;;;;;5.43;1.30;;;11.20;1.00;;;;;;5024010;28;20185;-90
2023/04/25 13:06:38;;;;;;;4.27;1.30;;;10.90;1.00;;;;;;5015567;28;20183;-87
2023/04/25 13:09:06;;;;;;;3.87;1.63;;;10.70;1.00;;;;;;5018976;28;20214;-89
2023/04/25 13:11:32;;;;;;;6.73;1.30;;;10.90;1.00;;;;;;5027639;28;20170;-88
2023/04/25 13:14:00;;;;;;;6.27;1.83;;;11.00;1.00;;;;;;5032038;28;20674;-89
2023/04/25 13:16:26;;;;;;;3.70;1.30;;;10.90;1.00;;;;;;5030019;28;20205;-90
2023/04/25 13:18:53;;;;;;;5.13;1.40;;;11.00;1.00;;;;;;5034314;28;20193;-90
2023/04/25 13:21:21;;;;;;;3.17;1.67;;;11.20;1.00;;;;;;5035125;28;20217;-88
2023/04/25 13:23:47;;;;;;;7.50;1.40;;;11.00;1.00;;;;;;5017899;28;20182;-89
2023/04/25 13:26:15;;;;;;;4.40;1.50;;;11.10;1.00;;;;;;5015506;28;20262;-87
2023/04/25 13:28:43;;;;;;;4.00;1.33;;;11.00;99.90;;;;;;5015702;28;20178;-85
2023/04/25 13:31:12;;;;;;;5.13;1.30;;;11.10;99.90;;;;;;5016439;28;20163;-89
2023/04/25 13:33:37;;;;;;;4.13;1.20;;;11.20;99.90;;;;;;5014658;28;20201;-88
2023/04/25 13:36:03;;;;;;;3.93;1.20;;;11.40;99.90;;;;;;5016179;28;20683;-88
2023/04/25 13:38:29;;;;;;;7.77;1.60;;;11.60;50.90;;;;;;5016676;28;20861;-90
2023/04/25 13:40:55;;;;;;;4.10;1.37;;;11.90;1.00;;;;;;5015446;28;20226;-90
2023/04/25 13:43:24;;;;;;;4.70;1.57;;;12.00;2.40;;;;;;5014400;28;20171;-88
2023/04/25 13:45:50;;;;;;;3.73;1.40;;;11.90;1.00;;;;;;5014510;28;20190;-89
2023/04/25 13:48:19;;;;;;;3.17;1.07;;;11.90;99.90;;;;;;5014371;28;20714;-89
2023/04/25 13:50:45;;;;;;;3.43;1.23;;;11.90;99.90;;;;;;5014325;28;20270;-88
2023/04/25 13:53:12;;;;;;;5.57;1.37;;;11.70;1.00;;;;;;5016924;28;20175;-88
2023/04/25 13:55:38;;;;;;;7.27;1.37;;;11.30;1.00;;;;;;5017666;28;20213;-90
2023/04/25 13:58:07;;;;;;;7.03;1.60;;;11.00;1.00;;;;;;5019820;28;20273;-89
2023/04/25 14:00:38;;;;;;;4.40;1.37;;;10.90;1.00;;;;;;5021149;28;20182;-89
2023/04/25 14:03:06;;;;;;;4.17;1.33;;;10.80;1.00;;;;;;5000617;28;20183;-89
2023/04/25 14:05:37;;;;;;;4.83;1.90;;;10.70;1.00;;;;;;5006338;28;20182;-88
2023/04/25 14:08:10;;;;;;;3.33;1.43;;;10.90;1.00;;;;;;5023539;28;20217;-87
2023/04/25 14:10:36;;;;;;;3.80;1.37;;;11.00;1.00;;;;;;5039650;28;20221;-86
2023/04/25 14:13:03;;;;;;;3.17;1.33;;;11.20;1.00;;;;;;5038524;28;20183;-87
2023/04/25 14:15:29;;;;;;;5.23;1.33;;;11.10;99.90;;;;;;5025462;28;20210;-88
2023/04/25 14:17:56;;;;;;;6.30;1.50;;;11.10;99.90;;;;;;5019277;28;20196;-89
2023/04/25 14:20:23;;;;;;;5.77;1.50;;;11.00;99.90;;;;;;5022819;28;20194;-89
2023/04/25 14:22:50;;;;;;;6.00;1.50;;;11.10;99.90;;;;;;5024433;28;20190;-91
2023/04/25 14:25:23;;;;;;;4.33;1.57;;;11.20;99.90;;;;;;5026132;28;20179;-88
2023/04/25 14:27:49;;;;;;;8.43;1.67;;;11.40;99.90;;;;;;5008108;28;20638;-88
2023/04/25 14:30:19;;;;;;;4.70;1.80;;;11.60;99.90;;;;;;5004300;28;20319;-89
2023/04/25 14:32:45;;;;;;;4.63;1.97;;;11.40;99.90;;;;;;5026138;28;20190;-90
2023/04/25 14:35:14;;;;;;;2.70;1.20;;;11.50;99.90;;;;;;5011490;28;20244;-90